Time;durP1;ratioP1;P1;durP2;ratioP2;P2;SDS_P1;SDS_P2;PMS_P1;PMS_P2;Temp;Humidity;BMP_temperature;BMP_pressure;BME280_temperature;BME280_humidity;BME280_pressure;Samples;Min_cycle;Max_cycle;Signal;HPM_P1;HPM_P2
2024/03/09 00:01:09;;;;;;;57.80;25.70;;;;;;;-2.87;61.53;101725.81;107553;1250;106642;-71
2024/03/09 00:03:40;;;;;;;67.60;27.10;;;;;;;-2.90;62.07;101724.63;107529;1256;97955;-71
2024/03/09 00:06:10;;;;;;;57.40;25.50;;;;;;;-2.91;61.95;101718.52;107583;1249;97835;-68
2024/03/09 00:08:40;;;;;;;66.20;27.80;;;;;;;-2.92;62.22;101723.98;107543;1251;111758;-68
2024/03/09 00:11:09;;;;;;;54.10;25.60;;;;;;;-2.93;62.28;101721.19;107599;1251;109002;-69
2024/03/09 00:13:41;;;;;;;57.60;28.30;;;;;;;-2.96;62.34;101717.36;107549;1251;107154;-68
2024/03/09 00:16:10;;;;;;;57.70;27.10;;;;;;;-2.99;62.42;101724.42;107507;1254;97829;-67
2024/03/09 00:18:39;;;;;;;60.40;26.10;;;;;;;-3.02;62.32;101723.27;107522;1251;97883;-67
2024/03/09 00:21:13;;;;;;;54.10;25.20;;;;;;;-3.03;62.37;101720.82;107607;1251;111298;-68
2024/03/09 00:23:42;;;;;;;59.40;28.00;;;;;;;-3.06;62.41;101722.96;107634;1250;108668;-68
2024/03/09 00:26:12;;;;;;;72.10;27.70;;;;;;;-3.09;62.46;101720.73;107578;1251;105769;-67
2024/03/09 00:28:40;;;;;;;69.70;27.00;;;;;;;-3.11;62.76;101723.05;107507;1251;97930;-69
2024/03/09 00:31:11;;;;;;;62.70;26.40;;;;;;;-3.13;62.79;101720.29;107526;1250;97938;-68
2024/03/09 00:33:41;;;;;;;66.00;27.30;;;;;;;-3.16;63.04;101721.91;107612;1250;111946;-69
2024/03/09 00:36:11;;;;;;;58.70;26.00;;;;;;;-3.18;62.59;101719.66;107607;1250;108298;-69
2024/03/09 00:38:40;;;;;;;59.70;27.30;;;;;;;-3.22;62.80;101718.15;107565;1251;108113;-70
2024/03/09 00:41:09;;;;;;;68.10;27.60;;;;;;;-3.25;62.97;101719.95;107460;1251;97810;-71
2024/03/09 00:43:43;;;;;;;60.10;27.60;;;;;;;-3.27;63.15;101722.42;107649;1250;97835;-69
2024/03/09 00:46:13;;;;;;;58.80;28.10;;;;;;;-3.30;63.54;101716.88;107575;1249;111573;-68
2024/03/09 00:48:43;;;;;;;62.60;28.60;;;;;;;-3.30;64.00;101718.98;107602;1253;108591;-69
2024/03/09 00:51:12;;;;;;;58.70;27.10;;;;;;;-3.28;64.42;101722.11;107480;1251;107402;-68
2024/03/09 00:53:41;;;;;;;69.90;28.60;;;;;;;-3.26;64.53;101714.70;107529;1254;97854;-69
2024/03/09 00:56:10;;;;;;;61.90;29.10;;;;;;;-3.25;65.06;101714.33;107617;1251;98006;-66
2024/03/09 00:58:39;;;;;;;60.80;28.90;;;;;;;-3.23;65.46;101711.67;107615;1253;111023;-66
2024/03/09 01:01:08;;;;;;;64.10;29.00;;;;;;;-3.23;65.08;101712.89;107511;1251;108433;-67
2024/03/09 01:03:38;;;;;;;54.40;26.40;;;;;;;-3.23;65.28;101709.73;107493;1251;108546;-67
2024/03/09 01:06:07;;;;;;;64.90;27.50;;;;;;;-3.22;65.13;101711.29;107545;1255;97855;-68
2024/03/09 01:08:38;;;;;;;57.30;26.80;;;;;;;-3.20;65.42;101710.92;107625;1251;98433;-68
2024/03/09 01:11:06;;;;;;;55.30;26.70;;;;;;;-3.20;65.62;101708.11;107540;1251;111232;-68
2024/03/09 01:13:35;;;;;;;64.20;26.40;;;;;;;-3.19;65.52;101707.59;107604;1251;107904;-68
2024/03/09 01:16:04;;;;;;;54.60;25.80;;;;;;;-3.18;65.49;101707.19;107510;1253;108246;-69
2024/03/09 01:18:33;;;;;;;56.30;28.20;;;;;;;-3.14;65.75;101706.44;107630;1251;97816;-70
2024/03/09 01:21:01;;;;;;;57.00;27.70;;;;;;;-3.11;65.45;101702.00;107564;1250;97793;-70
2024/03/09 01:23:30;;;;;;;54.90;25.60;;;;;;;-3.11;65.67;101701.12;107534;1250;110992;-71
2024/03/09 01:25:59;;;;;;;57.40;25.00;;;;;;;-3.11;65.49;101700.77;107574;1253;107644;-68
2024/03/09 01:28:29;;;;;;;57.10;27.80;;;;;;;-3.11;65.84;101699.02;107600;1251;107223;-68
2024/03/09 01:30:57;;;;;;;59.20;26.30;;;;;;;-3.10;65.89;101701.11;107598;1249;97855;-69
2024/03/09 01:33:26;;;;;;;58.90;27.20;;;;;;;-3.11;65.55;101703.23;107729;1251;98422;-66
2024/03/09 01:35:55;;;;;;;63.20;26.20;;;;;;;-3.11;65.57;101703.40;107515;1251;110911;-67
2024/03/09 01:38:23;;;;;;;59.70;26.60;;;;;;;-3.11;65.90;101705.50;107591;1251;108176;-67
2024/03/09 01:40:51;;;;;;;66.70;27.70;;;;;;;-3.09;65.81;101701.98;107479;1251;107890;-68
2024/03/09 01:43:20;;;;;;;59.10;28.70;;;;;;;-3.09;65.37;101703.90;107682;1250;97741;-68
2024/03/09 01:45:50;;;;;;;67.20;30.20;;;;;;;-3.09;65.36;101703.04;107592;1251;98638;-68
2024/03/09 01:48:20;;;;;;;60.50;28.90;;;;;;;-3.12;65.37;101703.95;107532;1250;111310;-69
2024/03/09 01:50:49;;;;;;;65.40;28.70;;;;;;;-3.15;65.42;101701.89;107582;1251;107911;-67
2024/03/09 01:53:19;;;;;;;66.60;29.90;;;;;;;-3.15;65.33;101699.96;107558;1251;108901;-70
2024/03/09 01:55:48;;;;;;;60.20;27.80;;;;;;;-3.18;64.80;101699.14;107522;1250;97942;-69
2024/03/09 01:58:19;;;;;;;65.60;29.90;;;;;;;-3.23;64.68;101697.80;107663;1251;97899;-70
2024/03/09 02:00:56;;;;;;;66.40;30.20;;;;;;;-3.27;64.49;101699.80;107645;1250;111874;-68
2024/03/09 02:03:25;;;;;;;65.60;28.90;;;;;;;-3.32;64.37;101698.46;107631;1250;107220;-67
2024/03/09 02:05:54;;;;;;;60.30;28.00;;;;;;;-3.36;64.44;101704.85;107585;1251;105698;-68
2024/03/09 02:08:28;;;;;;;67.60;27.60;;;;;;;-3.40;64.39;101706.31;107635;1251;97842;-68
2024/03/09 02:10:59;;;;;;;63.30;28.10;;;;;;;-3.43;64.10;101708.13;107647;1250;98589;-67
2024/03/09 02:13:27;;;;;;;58.00;27.60;;;;;;;-3.51;64.55;101702.62;107451;1254;111742;-66
2024/03/09 02:15:56;;;;;;;58.90;28.30;;;;;;;-3.56;64.56;101701.99;107460;1251;107586;-68
2024/03/09 02:18:24;;;;;;;68.20;26.30;;;;;;;-3.61;64.33;101701.89;107648;1250;108349;-67
2024/03/09 02:20:55;;;;;;;69.50;29.30;;;;;;;-3.66;64.52;101704.24;107643;1251;97930;-68
2024/03/09 02:23:30;;;;;;;56.40;26.60;;;;;;;-3.70;64.79;101704.48;107632;1251;98447;-67
2024/03/09 02:26:00;;;;;;;63.40;28.20;;;;;;;-3.74;64.86;101702.79;107512;1250;111469;-68
2024/03/09 02:28:29;;;;;;;65.20;28.10;;;;;;;-3.77;64.75;101700.89;107644;1251;108608;-68
2024/03/09 02:31:02;;;;;;;63.40;29.40;;;;;;;-3.79;64.57;101702.85;107518;1256;107705;-69
2024/03/09 02:33:30;;;;;;;56.50;27.70;;;;;;;-3.83;64.67;101699.23;107576;1251;97814;-71
2024/03/09 02:36:00;;;;;;;64.80;30.40;;;;;;;-3.87;64.67;101698.40;107655;1251;97721;-71
2024/03/09 02:38:29;;;;;;;62.30;28.00;;;;;;;-3.90;65.04;101697.23;107520;1251;111457;-71
2024/03/09 02:40:59;;;;;;;71.50;29.80;;;;;;;-3.93;65.12;101699.17;107561;1250;107951;-69
2024/03/09 02:43:28;;;;;;;64.30;30.60;;;;;;;-3.96;64.89;101694.31;107510;1251;108593;-69
2024/03/09 02:45:56;;;;;;;63.00;30.20;;;;;;;-3.97;65.06;101692.40;107522;1251;97945;-67
2024/03/09 02:48:25;;;;;;;73.00;29.20;;;;;;;-3.99;65.03;101689.80;107452;1251;97935;-67
2024/03/09 02:50:53;;;;;;;63.30;29.50;;;;;;;-4.00;64.87;101694.90;107494;1251;112527;-67
2024/03/09 02:53:21;;;;;;;62.30;30.00;;;;;;;-4.02;65.14;101692.81;107499;1250;108486;-68
2024/03/09 02:55:50;;;;;;;68.70;29.90;;;;;;;-4.04;65.06;101692.85;107480;1250;107717;-67
2024/03/09 02:58:19;;;;;;;68.40;29.90;;;;;;;-4.07;64.89;101689.36;107478;1251;97840;-66
2024/03/09 03:00:47;;;;;;;67.30;29.80;;;;;;;-4.09;65.34;101685.72;107633;1251;97929;-68
2024/03/09 03:06:03;;;;;;;66.40;30.20;;;;;;;-4.11;65.29;101680.66;107551;1251;107513;-68
2024/03/09 03:08:33;;;;;;;69.00;29.90;;;;;;;-4.11;65.34;101681.71;107486;1250;107682;-67
2024/03/09 03:11:02;;;;;;;71.10;33.00;;;;;;;-4.10;65.81;101683.29;107486;1250;97850;-71
2024/03/09 03:13:31;;;;;;;76.30;32.10;;;;;;;-4.10;65.62;101678.71;107504;1251;97737;-70
2024/03/09 03:15:59;;;;;;;64.20;30.70;;;;;;;-4.08;65.85;101677.48;107601;1251;110042;-70
2024/03/09 03:18:28;;;;;;;64.10;30.40;;;;;;;-4.06;66.27;101681.98;107556;1251;107728;-70
2024/03/09 03:20:57;;;;;;;69.80;31.20;;;;;;;-4.04;66.56;101681.80;107588;1251;107436;-70
2024/03/09 03:23:26;;;;;;;70.30;31.70;;;;;;;-4.01;66.83;101682.47;107542;1250;97861;-68
2024/03/09 03:25:55;;;;;;;72.60;32.50;;;;;;;-4.00;66.69;101680.53;107536;1250;98440;-67
2024/03/09 03:28:24;;;;;;;64.40;29.20;;;;;;;-3.96;66.99;101681.69;107552;1251;111327;-67
2024/03/09 03:30:52;;;;;;;72.70;28.90;;;;;;;-3.93;66.90;101679.02;107638;1251;108799;-67
2024/03/09 03:33:21;;;;;;;67.60;29.30;;;;;;;-3.90;67.14;101680.40;107659;1251;108377;-67
2024/03/09 03:35:49;;;;;;;70.30;31.30;;;;;;;-3.89;66.77;101683.19;107605;1251;97810;-67
2024/03/09 03:38:18;;;;;;;68.50;30.50;;;;;;;-3.88;67.11;101681.59;107569;1251;98390;-68
2024/03/09 03:40:46;;;;;;;74.70;31.20;;;;;;;-3.88;67.32;101679.83;107614;1251;111430;-66
2024/03/09 03:43:15;;;;;;;67.20;29.60;;;;;;;-3.87;67.05;101677.91;107578;1249;108792;-68
2024/03/09 03:45:43;;;;;;;73.50;29.30;;;;;;;-3.86;67.37;101681.56;107495;1251;107948;-67
2024/03/09 03:48:15;;;;;;;58.70;28.90;;;;;;;-3.84;67.25;101680.31;107610;1250;98279;-68
2024/03/09 03:50:44;;;;;;;67.20;30.80;;;;;;;-3.82;67.21;101685.38;107453;1250;97726;-68
2024/03/09 03:53:13;;;;;;;67.40;30.40;;;;;;;-3.81;67.51;101680.08;107469;1250;113232;-68
2024/03/09 03:55:43;;;;;;;66.00;29.80;;;;;;;-3.81;67.77;101681.31;107594;1254;107380;-69
2024/03/09 03:58:17;;;;;;;76.10;31.00;;;;;;;-3.81;67.44;101678.69;107532;1250;107320;-71
2024/03/09 04:00:49;;;;;;;76.50;30.00;;;;;;;-3.80;67.45;101682.52;107468;1250;97935;-70
2024/03/09 04:03:21;;;;;;;66.80;29.70;;;;;;;-3.80;67.57;101680.60;107542;1251;97883;-67
2024/03/09 04:05:50;;;;;;;66.40;29.10;;;;;;;-3.80;68.19;101678.14;107609;1251;110631;-67
2024/03/09 04:08:19;;;;;;;63.00;29.80;;;;;;;-3.80;67.89;101679.71;107509;1251;108324;-68
2024/03/09 04:10:50;;;;;;;63.40;29.70;;;;;;;-3.80;68.04;101677.96;107446;1250;108535;-68
2024/03/09 04:13:23;;;;;;;66.00;28.70;;;;;;;-3.80;68.49;101676.56;107489;1250;97842;-67
2024/03/09 04:15:52;;;;;;;60.60;28.10;;;;;;;-3.80;68.10;101681.66;107479;1250;97944;-68
2024/03/09 04:18:22;;;;;;;62.00;28.20;;;;;;;-3.83;68.47;101677.83;107512;1250;111721;-68
2024/03/09 04:20:53;;;;;;;69.60;30.00;;;;;;;-3.88;68.44;101678.43;107573;1251;108546;-68
2024/03/09 04:23:22;;;;;;;65.50;27.70;;;;;;;-3.93;68.35;101679.20;107596;1255;107259;-67
2024/03/09 04:25:52;;;;;;;64.30;27.70;;;;;;;-3.96;68.31;101682.40;107487;1251;97800;-67
2024/03/09 04:28:23;;;;;;;70.50;29.90;;;;;;;-3.96;68.12;101681.00;107475;1250;97796;-67
2024/03/09 04:30:51;;;;;;;60.10;29.10;;;;;;;-4.00;67.55;101687.71;107492;1253;110297;-69
2024/03/09 04:33:21;;;;;;;64.60;29.10;;;;;;;-4.04;67.28;101689.86;107500;1250;106736;-68
2024/03/09 04:35:50;;;;;;;71.70;28.30;;;;;;;-4.08;67.44;101690.09;107500;1250;107092;-69
2024/03/09 04:38:18;;;;;;;60.90;28.40;;;;;;;-4.13;67.09;101692.95;107429;1250;97900;-69
2024/03/09 04:40:48;;;;;;;64.30;27.10;;;;;;;-4.18;66.94;101690.90;107470;1250;98594;-72
2024/03/09 04:43:18;;;;;;;58.30;28.10;;;;;;;-4.21;67.17;101690.77;107573;1251;112704;-67
2024/03/09 04:45:50;;;;;;;64.70;28.10;;;;;;;-4.24;67.17;101695.20;107560;1251;108510;-69
2024/03/09 04:48:20;;;;;;;62.00;29.10;;;;;;;-4.29;67.13;101700.33;107535;1250;108134;-68
2024/03/09 04:50:49;;;;;;;75.70;29.20;;;;;;;-4.32;67.18;101695.47;107426;1250;97858;-68
2024/03/09 04:53:18;;;;;;;67.10;29.20;;;;;;;-4.35;66.81;101704.27;107573;1251;98380;-67
2024/03/09 04:55:53;;;;;;;60.50;27.60;;;;;;;-4.40;66.94;101701.86;107541;1250;112067;-67
2024/03/09 04:58:25;;;;;;;64.50;29.10;;;;;;;-4.43;67.08;101705.02;107521;1250;108673;-67
2024/03/09 05:00:54;;;;;;;58.80;29.00;;;;;;;-4.45;66.68;101707.16;107445;1251;107679;-67
2024/03/09 05:03:23;;;;;;;62.60;26.60;;;;;;;-4.47;66.85;101707.36;107553;1250;97831;-67
2024/03/09 05:05:52;;;;;;;56.30;27.50;;;;;;;-4.49;66.72;101709.67;107502;1250;97838;-66
2024/03/09 05:08:20;;;;;;;56.80;26.40;;;;;;;-4.51;67.14;101711.25;107563;1253;111473;-67
2024/03/09 05:10:49;;;;;;;60.30;26.80;;;;;;;-4.51;67.09;101713.18;107631;1251;108018;-67
2024/03/09 05:13:17;;;;;;;65.80;25.80;;;;;;;-4.50;67.09;101712.12;107589;1254;107101;-68
2024/03/09 05:15:50;;;;;;;59.80;27.80;;;;;;;-4.49;66.96;101716.32;107520;1253;97854;-67
2024/03/09 05:18:19;;;;;;;69.60;29.00;;;;;;;-4.47;66.86;101715.77;107544;1252;97905;-68
2024/03/09 05:20:48;;;;;;;59.10;27.80;;;;;;;-4.44;67.43;101717.66;107558;1253;111507;-71
2024/03/09 05:23:16;;;;;;;56.90;28.10;;;;;;;-4.41;67.16;101720.61;107630;1250;107789;-69
2024/03/09 05:25:46;;;;;;;70.10;30.70;;;;;;;-4.37;67.31;101719.51;107551;1257;108446;-69
2024/03/09 05:28:19;;;;;;;64.00;29.30;;;;;;;-4.34;67.48;101723.33;107584;1251;97855;-70
2024/03/09 05:30:48;;;;;;;71.40;28.40;;;;;;;-4.31;67.33;101719.63;107590;1251;98444;-68
2024/03/09 05:33:17;;;;;;;66.40;31.50;;;;;;;-4.29;67.19;101723.98;107656;1255;111798;-67
2024/03/09 05:35:45;;;;;;;70.00;33.00;;;;;;;-4.25;67.58;101722.17;107570;1251;108406;-67
2024/03/09 05:38:14;;;;;;;91.20;33.00;;;;;;;-4.21;67.25;101724.92;107620;1251;107350;-67
2024/03/09 05:40:43;;;;;;;76.40;33.60;;;;;;;-4.16;67.53;101728.71;107560;1251;97816;-67
2024/03/09 05:43:13;;;;;;;70.20;31.70;;;;;;;-4.11;67.23;101727.44;107618;1256;97822;-67
2024/03/09 05:45:42;;;;;;;72.60;34.00;;;;;;;-4.06;67.52;101727.91;107567;1255;111437;-66
2024/03/09 05:48:11;;;;;;;78.50;33.10;;;;;;;-4.00;67.16;101730.11;107576;1250;108546;-68
2024/03/09 05:50:40;;;;;;;71.00;32.20;;;;;;;-3.95;67.25;101734.60;107561;1250;107987;-67
2024/03/09 05:53:08;;;;;;;75.30;33.40;;;;;;;-3.89;67.24;101735.23;107499;1254;97710;-69
2024/03/09 05:55:39;;;;;;;83.10;35.40;;;;;;;-3.82;67.31;101739.00;107509;1250;97835;-68
2024/03/09 05:58:09;;;;;;;79.70;36.30;;;;;;;-3.73;67.16;101733.27;107532;1253;112710;-68
2024/03/09 06:00:37;;;;;;;76.50;35.30;;;;;;;-3.64;67.50;101734.91;107582;1251;106519;-70
2024/03/09 06:03:06;;;;;;;74.50;36.10;;;;;;;-3.56;67.45;101735.48;107603;1250;108248;-69
2024/03/09 06:05:38;;;;;;;91.30;38.80;;;;;;;-3.44;67.44;101735.48;107583;1256;97718;-71
2024/03/09 06:08:07;;;;;;;73.00;34.40;;;;;;;-3.32;67.81;101734.98;107558;1253;98633;-67
2024/03/09 06:10:35;;;;;;;71.80;33.80;;;;;;;-3.20;67.88;101740.73;107552;1252;111400;-68
2024/03/09 06:13:17;;;;;;;82.00;34.60;;;;;;;-3.07;67.96;101734.56;107502;1251;108126;-68
2024/03/09 06:15:50;;;;;;;84.80;35.70;;;;;;;-2.92;68.25;101732.58;107480;1250;108212;-68
2024/03/09 06:18:19;;;;;;;75.90;35.10;;;;;;;-2.77;68.64;101733.02;107519;1251;97886;-68
2024/03/09 06:20:47;;;;;;;75.90;34.20;;;;;;;-2.62;68.47;101731.35;107515;1255;97698;-67
2024/03/09 06:23:16;;;;;;;77.10;37.30;;;;;;;-2.46;69.06;101729.48;107450;1250;111963;-67
2024/03/09 06:25:46;;;;;;;82.10;34.30;;;;;;;-2.32;68.95;101731.84;107470;1250;108125;-67
2024/03/09 06:28:15;;;;;;;89.30;35.80;;;;;;;-2.19;68.84;101736.17;107555;1255;108161;-68
2024/03/09 06:30:45;;;;;;;78.10;34.20;;;;;;;-2.05;68.78;101734.48;107590;1251;97825;-69
2024/03/09 06:33:14;;;;;;;73.90;34.30;;;;;;;-1.89;69.36;101737.30;107588;1252;97727;-70
2024/03/09 06:35:43;;;;;;;79.50;35.50;;;;;;;-1.73;68.64;101732.42;107574;1253;111896;-72
2024/03/09 06:38:14;;;;;;;85.10;35.20;;;;;;;-1.59;68.61;101732.63;107547;1253;108656;-71
2024/03/09 06:40:45;;;;;;;85.00;36.60;;;;;;;-1.43;68.65;101731.21;107536;1251;107546;-68
2024/03/09 06:43:17;;;;;;;84.90;37.10;;;;;;;-1.28;68.77;101731.39;107540;1251;97801;-69
2024/03/09 06:45:46;;;;;;;94.60;37.50;;;;;;;-1.14;68.62;101733.34;107588;1250;97979;-67
2024/03/09 06:48:15;;;;;;;77.40;37.90;;;;;;;-1.05;68.44;101731.38;107586;1250;110788;-67
2024/03/09 06:50:44;;;;;;;76.40;36.50;;;;;;;-0.97;68.20;101735.39;107522;1254;107025;-66
2024/03/09 06:53:13;;;;;;;77.60;34.10;;;;;;;-0.88;68.03;101735.52;107512;1252;107439;-68
2024/03/09 06:55:42;;;;;;;83.20;35.60;;;;;;;-0.83;67.36;101730.81;107483;1250;97958;-68
2024/03/09 06:58:11;;;;;;;81.70;36.90;;;;;;;-0.80;66.93;101733.75;107522;1250;97715;-67
2024/03/09 07:00:40;;;;;;;71.10;32.70;;;;;;;-0.75;67.10;101730.98;107446;1250;112398;-67
2024/03/09 07:03:10;;;;;;;79.10;35.40;;;;;;;-0.69;66.92;101731.88;107435;1250;108778;-67
2024/03/09 07:05:39;;;;;;;78.50;35.90;;;;;;;-0.62;66.67;101728.17;107468;1253;107205;-67
2024/03/09 07:08:15;;;;;;;77.00;36.80;;;;;;;-0.53;66.45;101727.23;107372;1250;98480;-69
2024/03/09 07:10:47;;;;;;;71.60;33.80;;;;;;;-0.46;66.56;101725.80;107521;1250;97831;-67
2024/03/09 07:13:18;;;;;;;72.30;33.50;;;;;;;-0.37;66.24;101722.56;107493;1253;111782;-67
2024/03/09 07:15:48;;;;;;;85.10;36.30;;;;;;;-0.27;66.12;101730.41;107527;1250;108627;-68
2024/03/09 07:18:16;;;;;;;69.00;32.80;;;;;;;-0.19;66.29;101726.66;107501;1252;108015;-68
2024/03/09 07:20:45;;;;;;;64.80;29.60;;;;;;;-0.11;66.19;101728.20;107384;1253;97842;-68
2024/03/09 07:23:14;;;;;;;61.40;29.80;;;;;;;-0.03;65.97;101729.18;107477;1253;98377;-68
2024/03/09 07:25:43;;;;;;;63.90;30.20;;;;;;;0.07;65.98;101728.40;107537;1253;111850;-67
2024/03/09 07:28:14;;;;;;;60.70;27.50;;;;;;;0.18;65.85;101732.66;107487;1250;107928;-67
2024/03/09 07:30:42;;;;;;;62.30;28.90;;;;;;;0.28;65.62;101736.05;107436;1250;108176;-67
2024/03/09 07:33:11;;;;;;;56.40;26.50;;;;;;;0.38;65.36;101735.58;107526;1253;98557;-67
2024/03/09 07:35:39;;;;;;;59.80;27.10;;;;;;;0.48;65.07;101735.27;107526;1253;98352;-68
2024/03/09 07:38:09;;;;;;;56.20;28.80;;;;;;;0.60;64.90;101737.37;107491;1251;111532;-67
2024/03/09 07:40:41;;;;;;;64.50;29.20;;;;;;;0.73;64.85;101735.38;107446;1250;108425;-69
2024/03/09 07:43:15;;;;;;;53.40;25.90;;;;;;;0.87;64.74;101730.70;107452;1256;108521;-69
2024/03/09 07:45:43;;;;;;;66.80;29.30;;;;;;;1.00;64.02;101725.35;107407;1251;97919;-69
2024/03/09 07:48:16;;;;;;;56.90;26.60;;;;;;;1.13;63.96;101728.09;106787;1250;822509;-67
2024/03/09 07:50:48;;;;;;;51.30;25.70;;;;;;;1.32;63.73;101729.40;107450;1253;110692;-75
2024/03/09 07:53:18;;;;;;;53.90;26.60;;;;;;;1.52;63.44;101722.85;107506;1251;107625;-70
2024/03/09 07:55:47;;;;;;;51.90;25.40;;;;;;;1.71;62.84;101723.59;107421;1250;108253;-69
2024/03/09 07:58:16;;;;;;;58.60;26.30;;;;;;;1.87;62.30;101726.40;107524;1253;97902;-68
2024/03/09 08:00:53;;;;;;;61.30;28.00;;;;;;;1.99;61.76;101720.27;107396;1251;98418;-69
2024/03/09 08:03:24;;;;;;;65.70;28.10;;;;;;;2.12;61.69;101721.76;107555;1250;111906;-69
2024/03/09 08:05:53;;;;;;;55.30;26.70;;;;;;;2.27;61.52;101720.81;107484;1250;108520;-70
2024/03/09 08:08:22;;;;;;;57.30;26.20;;;;;;;2.40;61.34;101719.25;107517;1253;107977;-68
2024/03/09 08:10:54;;;;;;;54.80;28.20;;;;;;;2.55;61.14;101719.39;107485;1256;97850;-72
2024/03/09 08:13:23;;;;;;;59.20;28.20;;;;;;;2.70;61.04;101714.19;107504;1250;98372;-68
2024/03/09 08:15:53;;;;;;;54.10;26.20;;;;;;;2.88;60.67;101712.94;107456;1253;111913;-73
2024/03/09 08:18:23;;;;;;;66.40;28.10;;;;;;;3.04;60.57;101711.39;107387;1252;108461;-71
2024/03/09 08:20:51;;;;;;;59.50;28.10;;;;;;;3.21;59.97;101714.40;107530;1256;108257;-72
2024/03/09 08:23:20;;;;;;;59.90;26.40;;;;;;;3.45;59.35;101711.76;107415;1252;97886;-72
2024/03/09 08:25:49;;;;;;;61.70;26.80;;;;;;;3.74;59.35;101710.66;107549;1250;98041;-70
2024/03/09 08:28:20;;;;;;;46.00;24.60;;;;;;;3.91;57.30;101703.19;107481;1253;112491;-68
2024/03/09 08:30:48;;;;;;;49.50;26.00;;;;;;;4.02;56.34;101701.39;107543;1252;108290;-68
2024/03/09 08:33:17;;;;;;;51.20;25.60;;;;;;;4.14;55.91;101694.70;107471;1255;106609;-69
2024/03/09 08:35:46;;;;;;;64.60;27.00;;;;;;;4.26;56.19;101694.82;107488;1250;97934;-67
2024/03/09 08:38:14;;;;;;;59.40;25.40;;;;;;;4.44;56.40;101696.30;107404;1250;97781;-68
2024/03/09 08:40:43;;;;;;;51.60;25.00;;;;;;;4.63;56.16;101695.00;107521;1253;111820;-67
2024/03/09 08:43:12;;;;;;;52.70;23.70;;;;;;;4.77;54.43;101686.52;107528;1250;107386;-68
2024/03/09 08:45:42;;;;;;;57.30;25.90;;;;;;;4.92;54.57;101689.83;107491;1252;107807;-69
2024/03/09 08:48:14;;;;;;;48.50;22.90;;;;;;;5.11;53.70;101686.94;107546;1251;97830;-70
2024/03/09 08:50:43;;;;;;;48.70;24.80;;;;;;;5.28;52.40;101686.80;107468;1250;97937;-71
2024/03/09 08:53:11;;;;;;;44.70;23.70;;;;;;;5.45;52.66;101683.60;107388;1253;111236;-71
2024/03/09 08:55:39;;;;;;;41.10;21.80;;;;;;;5.63;50.63;101681.97;107456;1250;107420;-70
2024/03/09 08:58:08;;;;;;;48.20;21.60;;;;;;;5.80;50.49;101675.71;107447;1250;107004;-70
2024/03/09 09:00:37;;;;;;;49.10;23.30;;;;;;;6.03;49.36;101669.30;107417;1251;97871;-72
2024/03/09 09:03:07;;;;;;;44.00;23.50;;;;;;;6.24;48.66;101667.48;107471;1251;98543;-68
2024/03/09 09:05:36;;;;;;;50.80;21.80;;;;;;;6.47;49.44;101666.17;107418;1251;111230;-68
2024/03/09 09:08:05;;;;;;;41.80;23.10;;;;;;;6.76;49.72;101659.20;107555;1253;109172;-68
2024/03/09 09:10:35;;;;;;;40.50;21.90;;;;;;;7.06;49.14;101654.20;107481;1250;107208;-68
2024/03/09 09:13:04;;;;;;;51.00;23.30;;;;;;;7.36;48.65;101654.58;107521;1253;98373;-68
2024/03/09 09:15:33;;;;;;;50.60;22.00;;;;;;;7.69;48.44;101654.89;107530;1250;97753;-68
2024/03/09 09:18:02;;;;;;;39.60;22.00;;;;;;;8.01;47.58;101648.94;107529;1253;111799;-70
2024/03/09 09:20:31;;;;;;;40.60;20.20;;;;;;;8.30;44.22;101646.01;107595;1250;106850;-68
2024/03/09 09:23:00;;;;;;;39.70;19.30;;;;;;;8.53;42.55;101645.95;107457;1255;108221;-68
2024/03/09 09:25:29;;;;;;;38.30;19.50;;;;;;;8.75;41.39;101642.75;107540;1250;97819;-68
2024/03/09 09:28:02;;;;;;;28.50;17.40;;;;;;;9.04;41.11;101639.20;107495;1254;98399;-67
2024/03/09 09:30:31;;;;;;;38.20;18.50;;;;;;;9.61;40.94;101634.04;107468;1253;111827;-67
2024/03/09 09:33:00;;;;;;;37.60;18.50;;;;;;;10.34;40.20;101632.39;107473;1251;108607;-67
2024/03/09 09:35:28;;;;;;;28.30;15.50;;;;;;;11.14;37.88;101627.44;107462;1251;108597;-68
2024/03/09 09:37:57;;;;;;;26.70;14.60;;;;;;;11.79;36.78;101631.56;107378;1250;97851;-67
2024/03/09 09:40:29;;;;;;;29.40;15.70;;;;;;;12.62;37.31;101628.78;107552;1254;97813;-67
2024/03/09 09:43:02;;;;;;;23.20;14.00;;;;;;;13.34;36.02;101621.64;107537;1255;111236;-68
2024/03/09 09:45:37;;;;;;;23.30;13.10;;;;;;;13.94;34.83;101620.53;107546;1251;109068;-68
2024/03/09 09:48:06;;;;;;;25.80;13.10;;;;;;;14.71;33.67;101617.11;107503;1250;107666;-67
2024/03/09 09:50:35;;;;;;;27.40;14.00;;;;;;;15.14;31.61;101613.77;107470;1252;97869;-68
2024/03/09 09:53:07;;;;;;;31.80;15.70;;;;;;;15.32;29.81;101614.04;107489;1251;97801;-71
2024/03/09 09:55:37;;;;;;;35.10;15.70;;;;;;;15.73;30.48;101615.95;107427;1256;112324;-68
2024/03/09 09:58:08;;;;;;;29.10;14.20;;;;;;;16.17;30.46;101610.61;107600;1251;107357;-67
2024/03/09 10:00:39;;;;;;;21.70;15.00;;;;;;;16.52;28.65;101610.25;107450;1250;107725;-68
2024/03/09 10:03:10;;;;;;;20.20;12.90;;;;;;;16.64;26.31;101616.25;107431;1256;97849;-68
2024/03/09 10:05:39;;;;;;;19.50;12.00;;;;;;;16.95;26.33;101609.66;107390;1251;97920;-68
2024/03/09 10:08:14;;;;;;;25.70;14.80;;;;;;;17.46;25.85;101601.68;107397;1251;111900;-68
2024/03/09 10:10:43;;;;;;;23.30;14.30;;;;;;;17.93;27.71;101601.91;107527;1250;107827;-68
2024/03/09 10:13:15;;;;;;;27.70;14.50;;;;;;;18.81;27.26;101595.17;107383;1251;107962;-70
2024/03/09 10:15:48;;;;;;;31.80;15.70;;;;;;;19.32;25.63;101594.86;107508;1254;97837;-68
2024/03/09 10:18:16;;;;;;;21.60;12.80;;;;;;;19.82;26.13;101594.40;107581;1250;97876;-66
2024/03/09 10:20:46;;;;;;;19.40;12.60;;;;;;;20.17;23.71;101591.65;107377;1254;112526;-67
2024/03/09 10:23:18;;;;;;;17.10;12.30;;;;;;;20.14;23.18;101590.55;107413;1254;107955;-67
2024/03/09 10:25:47;;;;;;;18.10;10.90;;;;;;;20.41;23.49;101590.27;107504;1253;107757;-66
2024/03/09 10:28:16;;;;;;;21.90;10.40;;;;;;;20.69;22.69;101589.17;107406;1250;97945;-69
2024/03/09 10:30:45;;;;;;;17.80;11.60;;;;;;;21.08;22.94;101587.80;107458;1254;98385;-69
2024/03/09 10:33:16;;;;;;;18.70;11.10;;;;;;;20.94;19.65;101589.19;107414;1254;112037;-70
2024/03/09 10:35:48;;;;;;;26.20;12.70;;;;;;;20.79;20.90;101585.05;107452;1251;107960;-69
2024/03/09 10:38:19;;;;;;;21.90;13.70;;;;;;;20.74;20.04;101583.20;107453;1251;107280;-67
2024/03/09 10:40:51;;;;;;;20.90;12.50;;;;;;;21.00;21.43;101575.84;107566;1253;97833;-68
2024/03/09 10:43:22;;;;;;;22.20;13.80;;;;;;;21.76;21.65;101571.23;107501;1254;97702;-68
2024/03/09 10:45:51;;;;;;;23.50;13.90;;;;;;;22.13;20.75;101565.28;107500;1254;112790;-68
2024/03/09 10:48:21;;;;;;;21.70;14.30;;;;;;;22.44;20.77;101562.68;107502;1251;108626;-69
2024/03/09 10:51:06;;;;;;;20.50;13.10;;;;;;;22.56;21.17;101559.26;107441;1254;108431;-67
2024/03/09 10:53:41;;;;;;;25.00;13.40;;;;;;;22.91;20.37;101553.42;107568;1251;97828;-66
2024/03/09 10:56:21;;;;;;;18.90;11.60;;;;;;;22.80;18.71;101552.00;107475;1253;98408;-67
2024/03/09 10:58:53;;;;;;;20.10;12.60;;;;;;;22.96;19.43;101545.54;107541;1253;111283;-70
2024/03/09 11:01:23;;;;;;;18.90;11.60;;;;;;;22.98;19.23;101545.27;107474;1254;107384;-69
2024/03/09 11:03:52;;;;;;;24.10;11.50;;;;;;;22.86;18.31;101542.50;107448;1251;108614;-70
2024/03/09 11:06:22;;;;;;;20.90;10.70;;;;;;;23.11;19.68;101534.63;107423;1251;97816;-69
2024/03/09 11:08:53;;;;;;;20.40;11.70;;;;;;;23.48;19.39;101532.39;107453;1251;97896;-70
2024/03/09 11:11:25;;;;;;;14.30;10.10;;;;;;;23.90;18.98;101532.84;107525;1253;110267;-70
2024/03/09 11:13:54;;;;;;;13.50;9.40;;;;;;;24.01;16.98;101527.64;107532;1251;106682;-69